Time;durP1;ratioP1;P1;durP2;ratioP2;P2;SDS_P1;SDS_P2;PMS_P1;PMS_P2;Temp;Humidity;BMP_temperature;BMP_pressure;BME280_temperature;BME280_humidity;BME280_pressure;Samples;Min_cycle;Max_cycle;Signal;HPM_P1;HPM_P2
2023/11/18 00:01:33;;;;;;;22.80;11.85;;;;;;;-146.27;86.34;33251.69;5031645;28;20029;-71
2023/11/18 00:03:59;;;;;;;22.10;11.55;;;;;;;-146.27;86.34;33204.06;5032657;28;20033;-70
2023/11/18 00:06:25;;;;;;;24.52;12.02;;;;;;;-146.27;86.32;33174.31;5030478;28;20038;-70
2023/11/18 00:08:50;;;;;;;19.90;11.45;;;;;;;-146.27;86.45;33241.78;5034504;28;20411;-70
2023/11/18 00:11:16;;;;;;;24.88;12.50;;;;;;;-146.27;86.64;33257.66;5039020;28;20473;-70
2023/11/18 00:13:44;;;;;;;21.48;11.40;;;;;;;-146.27;86.45;33223.91;5029604;28;20193;-72
2023/11/18 00:16:15;;;;;;;27.55;12.55;;;;;;;-146.27;86.19;33219.94;5036481;28;20500;-69
2023/11/18 00:18:41;;;;;;;23.65;12.07;;;;;;;-146.27;86.23;33259.63;5024949;28;20105;-70
2023/11/18 00:21:07;;;;;;;25.50;12.75;;;;;;;-146.27;86.31;33255.66;5034717;28;20053;-70
2023/11/18 00:23:32;;;;;;;22.83;12.02;;;;;;;-146.27;86.07;33251.69;5024591;28;20401;-70
2023/11/18 00:25:58;;;;;;;25.67;13.00;;;;;;;-146.27;86.02;33279.47;5034934;28;20032;-70
2023/11/18 00:28:23;;;;;;;22.17;11.18;;;;;;;-146.27;86.16;33251.69;5034958;28;20491;-72
2023/11/18 00:30:48;;;;;;;20.13;11.82;;;;;;;-146.27;85.72;33307.25;5027174;28;20436;-70
2023/11/18 00:33:14;;;;;;;25.83;12.27;;;;;;;-146.27;86.14;33299.31;5029720;28;20465;-70
2023/11/18 00:35:39;;;;;;;21.02;12.27;;;;;;;-146.27;86.28;33303.28;5019017;28;20111;-71
2023/11/18 00:38:04;;;;;;;22.45;12.63;;;;;;;-146.27;86.80;33283.44;5033934;28;20108;-73
2023/11/18 00:40:30;;;;;;;23.95;12.77;;;;;;;-146.27;86.86;33299.31;5031996;28;20032;-71
2023/11/18 00:42:56;;;;;;;24.15;12.30;;;;;;;-146.27;86.75;33281.47;5038224;28;20022;-68
2023/11/18 00:45:21;;;;;;;23.25;13.30;;;;;;;-146.27;86.94;33251.69;5035558;28;20439;-70
2023/11/18 00:47:47;;;;;;;26.08;13.80;;;;;;;-146.27;86.89;33277.50;5023657;28;20084;-70
2023/11/18 00:50:12;;;;;;;24.88;13.30;;;;;;;-146.27;87.00;33255.66;5033827;28;20112;-70
2023/11/18 00:52:40;;;;;;;24.80;12.48;;;;;;;-146.27;86.78;33215.97;5028697;28;20033;-70
2023/11/18 00:55:08;;;;;;;26.48;13.35;;;;;;;-146.27;86.92;33275.50;5025306;28;20029;-71
2023/11/18 00:57:34;;;;;;;28.08;13.40;;;;;;;-146.27;86.89;33237.81;5031198;28;20095;-70
2023/11/18 00:59:59;;;;;;;23.05;12.88;;;;;;;-146.27;86.85;33223.91;5038133;28;20032;-70
2023/11/18 01:02:25;;;;;;;25.08;14.13;;;;;;;-146.27;86.74;33257.66;5027169;28;20397;-71
2023/11/18 01:04:50;;;;;;;29.02;13.95;;;;;;;-146.27;86.73;33255.66;5024912;28;20026;-70
2023/11/18 01:07:16;;;;;;;28.00;13.30;;;;;;;-146.27;86.65;33196.13;5039000;28;20020;-70
2023/11/18 01:09:41;;;;;;;24.77;13.82;;;;;;;-146.27;86.50;33231.84;5036028;28;20029;-70
2023/11/18 01:12:09;;;;;;;21.15;13.30;;;;;;;-146.27;86.51;33223.91;5032231;28;20060;-70
2023/11/18 01:14:39;;;;;;;21.75;13.20;;;;;;;-146.27;86.61;33208.03;5032174;28;20160;-70
2023/11/18 01:17:09;;;;;;;23.48;12.77;;;;;;;-146.27;86.55;33198.13;5031746;28;20029;-68
2023/11/18 01:19:35;;;;;;;22.52;13.25;;;;;;;-146.27;86.51;33168.38;5027589;28;20033;-70
2023/11/18 01:22:05;;;;;;;26.35;12.88;;;;;;;-146.27;86.35;33210.03;5025731;28;20025;-69
2023/11/18 01:24:30;;;;;;;23.70;13.57;;;;;;;-146.27;86.62;33223.91;5019414;28;20116;-69
2023/11/18 01:26:56;;;;;;;27.05;13.55;;;;;;;-146.27;86.72;33200.09;5025543;28;20434;-70
2023/11/18 01:29:22;;;;;;;30.38;14.20;;;;;;;-146.27;86.65;33212.00;5021062;28;20145;-72
2023/11/18 01:31:47;;;;;;;24.15;13.73;;;;;;;-146.27;86.71;33237.81;5020239;28;20064;-70
2023/11/18 01:34:13;;;;;;;22.92;13.75;;;;;;;-146.27;86.86;33208.03;5022951;28;20025;-71
2023/11/18 01:36:38;;;;;;;22.00;13.35;;;;;;;-146.27;86.75;33196.13;5021118;28;20068;-70
2023/11/18 01:39:04;;;;;;;24.02;12.40;;;;;;;-146.27;86.49;33172.34;5029709;28;20377;-70
2023/11/18 01:41:32;;;;;;;20.42;12.68;;;;;;;-146.27;86.89;33227.88;5017434;28;20473;-71
2023/11/18 01:43:58;;;;;;;23.00;12.82;;;;;;;-146.27;86.64;33156.47;5014939;28;20029;-69
2023/11/18 01:46:24;;;;;;;25.63;12.45;;;;;;;-146.27;86.48;33148.53;5027394;28;20547;-69
2023/11/18 01:48:51;;;;;;;25.23;12.48;;;;;;;-146.27;86.42;33148.53;5029408;28;20026;-69
2023/11/18 01:51:19;;;;;;;22.83;12.02;;;;;;;-146.27;86.50;33172.34;5026849;28;20060;-69
2023/11/18 01:53:48;;;;;;;24.88;13.07;;;;;;;-146.27;86.61;33164.41;5036588;28;20026;-69
2023/11/18 01:56:14;;;;;;;26.92;12.50;;;;;;;-146.27;86.68;33176.31;5037660;28;22158;-71
2023/11/18 01:58:40;;;;;;;25.15;13.40;;;;;;;-146.27;86.73;33136.63;5031590;28;20032;-70
2023/11/18 02:01:08;;;;;;;21.65;12.75;;;;;;;-146.27;86.72;33176.31;5030069;28;20063;-71
2023/11/18 02:03:38;;;;;;;24.83;13.05;;;;;;;-146.27;86.86;33160.44;5028459;28;20061;-70
2023/11/18 02:06:04;;;;;;;21.58;12.07;;;;;;;-146.27;86.79;33188.19;5025784;28;20036;-71
2023/11/18 02:08:31;;;;;;;24.75;13.73;;;;;;;-146.27;86.53;33136.63;5035433;28;20078;-70
2023/11/18 02:11:06;;;;;;;28.65;14.18;;;;;;;-146.27;86.54;33164.41;5035987;28;20478;-70
2023/11/18 02:13:34;;;;;;;27.25;13.63;;;;;;;-146.27;86.46;33162.41;5041561;28;20031;-71
2023/11/18 02:16:00;;;;;;;29.40;14.02;;;;;;;-146.27;86.67;33180.28;5037889;28;20068;-70
2023/11/18 02:18:28;;;;;;;25.08;14.02;;;;;;;-146.27;86.48;33176.31;5039844;28;20048;-69
2023/11/18 02:20:57;;;;;;;35.70;14.35;;;;;;;-146.27;86.45;33146.53;5034720;28;20084;-71
2023/11/18 02:23:23;;;;;;;31.75;13.20;;;;;;;-146.27;86.40;33192.16;5040919;28;20033;-71
2023/11/18 02:25:49;;;;;;;25.80;13.27;;;;;;;-146.27;86.45;33178.28;5036461;28;20025;-72
2023/11/18 02:28:14;;;;;;;22.95;13.65;;;;;;;-146.27;86.40;33164.41;5025709;28;20153;-71
2023/11/18 02:30:42;;;;;;;24.95;13.35;;;;;;;-146.27;86.60;33168.38;5031311;28;20055;-71
2023/11/18 02:33:24;;;;;;;26.08;13.82;;;;;;;-146.27;86.49;33182.25;5029210;28;20446;-71
2023/11/18 02:35:57;;;;;;;29.63;12.82;;;;;;;-146.27;86.62;33172.34;5026012;28;20033;-70
2023/11/18 02:38:31;;;;;;;22.58;12.85;;;;;;;-146.27;86.48;33152.50;5036638;28;20116;-70
2023/11/18 02:41:01;;;;;;;26.90;14.20;;;;;;;-146.27;86.22;33164.41;5036512;28;20022;-71
2023/11/18 02:43:30;;;;;;;30.92;15.32;;;;;;;-146.27;86.26;33041.38;5030705;28;20041;-70
2023/11/18 02:45:57;;;;;;;30.17;13.98;;;;;;;-146.27;85.97;33140.59;5030762;28;20033;-71
2023/11/18 02:48:23;;;;;;;24.33;14.00;;;;;;;-146.27;86.02;33160.44;5029913;28;20101;-70
2023/11/18 02:50:49;;;;;;;28.33;13.73;;;;;;;-146.27;86.10;33164.41;5027759;28;20025;-71
2023/11/18 02:53:14;;;;;;;32.20;14.27;;;;;;;-146.27;85.87;33144.56;5033547;28;20147;-70
2023/11/18 02:55:40;;;;;;;22.13;12.95;;;;;;;-146.27;86.05;33164.41;5028546;28;20034;-70
2023/11/18 02:58:07;;;;;;;27.90;14.35;;;;;;;-146.27;85.92;33116.78;5026768;28;20037;-70
2023/11/18 03:00:33;;;;;;;33.00;15.88;;;;;;;-146.27;85.84;33152.50;5020606;28;20493;-70
2023/11/18 03:02:58;;;;;;;26.17;14.15;;;;;;;-146.27;85.67;33122.72;5026575;28;20099;-70
2023/11/18 03:05:26;;;;;;;29.98;14.23;;;;;;;-146.27;85.65;33144.56;5029417;28;20030;-70
2023/11/18 03:07:53;;;;;;;26.33;14.75;;;;;;;-146.27;85.61;33166.38;5032014;28;20029;-70
2023/11/18 03:10:23;;;;;;;25.92;14.70;;;;;;;-146.27;85.37;33130.66;5025265;28;20017;-71
2023/11/18 03:12:50;;;;;;;20.65;13.18;;;;;;;-146.27;85.38;33057.25;5025140;28;20128;-71
2023/11/18 03:15:18;;;;;;;26.70;14.27;;;;;;;-146.27;85.24;33041.38;5025382;28;20112;-70
2023/11/18 03:17:45;;;;;;;21.95;12.05;;;;;;;-146.27;85.24;33122.72;5034026;28;20136;-71
2023/11/18 03:20:16;;;;;;;23.85;12.40;;;;;;;-146.27;84.99;33136.63;5045828;28;20029;-72
2023/11/18 03:22:46;;;;;;;20.33;11.93;;;;;;;-146.27;84.88;33132.66;5037768;28;20120;-70
2023/11/18 03:25:12;;;;;;;27.55;11.65;;;;;;;-146.27;84.61;33029.47;5029954;28;20401;-70
2023/11/18 03:27:38;;;;;;;25.05;10.57;;;;;;;-146.27;84.75;33106.84;5042995;28;20025;-70
2023/11/18 03:30:06;;;;;;;21.52;11.27;;;;;;;-146.27;84.45;33092.97;5026018;28;20066;-71
2023/11/18 03:32:31;;;;;;;28.05;10.82;;;;;;;-146.27;84.45;33075.13;5028589;28;20029;-69
2023/11/18 03:34:58;;;;;;;17.48;10.15;;;;;;;-146.27;84.25;33110.81;5029571;28;20024;-69
2023/11/18 03:37:26;;;;;;;16.90;9.68;;;;;;;-146.27;84.07;33116.78;5035965;28;20024;-71
2023/11/18 03:39:51;;;;;;;19.33;10.15;;;;;;;-146.27;84.07;33100.91;5027480;28;20880;-71
2023/11/18 03:42:17;;;;;;;23.02;9.18;;;;;;;-146.27;83.99;33081.06;5022360;28;20157;-70
2023/11/18 03:44:42;;;;;;;22.27;9.32;;;;;;;-146.27;83.97;33114.78;5027946;28;20072;-70
2023/11/18 03:47:08;;;;;;;16.45;8.35;;;;;;;-146.27;83.73;33110.81;5022909;28;20032;-72
2023/11/18 03:49:33;;;;;;;17.17;9.00;;;;;;;-146.27;83.89;33053.28;5041031;28;20040;-71
2023/11/18 03:51:59;;;;;;;18.95;9.07;;;;;;;-146.27;83.79;33112.81;5036746;28;20034;-71
2023/11/18 03:54:24;;;;;;;19.38;9.10;;;;;;;-146.27;83.66;33098.94;5030231;28;20140;-71
2023/11/18 03:56:50;;;;;;;15.75;8.45;;;;;;;-146.27;83.72;33089.00;5037716;28;20041;-69
2023/11/18 03:59:15;;;;;;;17.10;9.13;;;;;;;-146.27;83.61;33079.09;5036452;28;20040;-70
2023/11/18 04:01:40;;;;;;;17.33;8.18;;;;;;;-146.27;83.31;33094.97;5035810;28;20025;-71
2023/11/18 04:04:06;;;;;;;24.05;8.82;;;;;;;-146.27;83.47;33096.94;5016396;28;20030;-72
2023/11/18 04:06:32;;;;;;;16.25;8.35;;;;;;;-146.27;83.47;33128.69;5031798;28;20028;-71
2023/11/18 04:08:57;;;;;;;18.10;8.48;;;;;;;-146.27;83.21;33100.91;5029230;28;20112;-70
2023/11/18 04:11:23;;;;;;;16.00;9.68;;;;;;;-146.27;83.17;33067.19;5027329;28;20073;-71
2023/11/18 04:13:48;;;;;;;24.23;9.85;;;;;;;-146.27;83.17;33071.16;5032537;28;20101;-70
2023/11/18 04:16:15;;;;;;;15.93;8.75;;;;;;;-146.27;83.18;33065.19;5033177;28;20021;-70
2023/11/18 04:18:44;;;;;;;15.85;8.98;;;;;;;-146.27;83.02;33065.19;5040746;28;20061;-71
2023/11/18 04:21:11;;;;;;;17.05;9.43;;;;;;;-146.27;83.22;33087.03;5031950;28;20033;-71
2023/11/18 04:23:37;;;;;;;18.02;10.02;;;;;;;-146.27;82.98;33089.00;5025738;28;20095;-72
2023/11/18 04:26:07;;;;;;;19.88;10.25;;;;;;;-146.27;82.90;33091.00;5032749;28;20033;-71
2023/11/18 04:28:33;;;;;;;21.90;11.02;;;;;;;-146.27;82.98;33085.03;5040390;28;20037;-70
2023/11/18 04:30:59;;;;;;;18.67;9.75;;;;;;;-146.27;82.51;33069.16;5030155;28;20087;-70
2023/11/18 04:33:25;;;;;;;18.88;10.55;;;;;;;-146.27;82.69;33049.31;5018123;28;20037;-73
2023/11/18 04:35:51;;;;;;;22.75;9.98;;;;;;;-146.27;82.65;33053.28;5030728;28;20032;-69
2023/11/18 04:38:17;;;;;;;21.08;9.75;;;;;;;-146.27;82.51;33096.94;5029983;28;20423;-70
2023/11/18 04:40:44;;;;;;;18.20;9.38;;;;;;;-146.27;82.36;33061.22;5031877;28;20652;-70
2023/11/18 04:43:10;;;;;;;22.13;10.23;;;;;;;-146.27;82.41;33081.06;5027558;28;20525;-70
2023/11/18 04:45:36;;;;;;;19.33;10.75;;;;;;;-146.27;82.31;33055.28;5024834;28;20051;-71
2023/11/18 04:48:03;;;;;;;19.35;9.70;;;;;;;-146.27;82.30;33079.09;5031060;28;20087;-72
2023/11/18 04:50:30;;;;;;;24.60;9.90;;;;;;;-146.27;82.17;33053.28;5026246;28;20028;-70
2023/11/18 04:52:55;;;;;;;21.50;11.02;;;;;;;-146.27;82.00;33073.13;5026292;28;20068;-71
2023/11/18 04:55:21;;;;;;;16.52;9.98;;;;;;;-146.27;82.08;33120.75;5030075;28;20045;-71
2023/11/18 04:57:47;;;;;;;25.60;11.10;;;;;;;-146.27;81.90;33096.94;5023330;28;20461;-70
2023/11/18 05:00:16;;;;;;;20.95;10.25;;;;;;;-146.27;81.86;33112.81;5040065;28;20679;-70
2023/11/18 05:02:42;;;;;;;17.30;9.88;;;;;;;-146.27;81.90;33116.78;5028219;28;20113;-71
2023/11/18 05:05:08;;;;;;;18.67;10.05;;;;;;;-146.27;81.92;33085.03;5029333;28;20099;-70
2023/11/18 05:07:34;;;;;;;20.25;9.90;;;;;;;-146.27;81.82;33081.06;5030553;28;20114;-70
2023/11/18 05:10:01;;;;;;;27.73;10.38;;;;;;;-146.27;81.65;33053.28;5039964;28;20025;-70
2023/11/18 05:12:29;;;;;;;22.02;10.00;;;;;;;-146.27;81.62;33057.25;5026838;28;20032;-70
2023/11/18 05:14:55;;;;;;;21.13;9.55;;;;;;;-146.27;81.56;33025.50;5020618;28;20207;-70
2023/11/18 05:17:26;;;;;;;18.00;9.80;;;;;;;-146.27;81.43;33092.97;5029761;28;20124;-71
2023/11/18 05:19:51;;;;;;;20.50;9.85;;;;;;;-146.27;81.54;33065.19;5030293;28;20037;-70
2023/11/18 05:22:17;;;;;;;21.20;9.10;;;;;;;-146.27;81.23;33025.50;5026799;28;20068;-69
2023/11/18 05:24:43;;;;;;;21.17;10.07;;;;;;;-146.27;81.21;33081.06;5041764;28;20401;-71
2023/11/18 05:27:09;;;;;;;13.32;8.95;;;;;;;-146.27;81.28;33061.22;5028074;28;20037;-70
2023/11/18 05:29:34;;;;;;;18.65;9.52;;;;;;;-146.27;81.21;33092.97;5036566;28;20048;-70
2023/11/18 05:31:59;;;;;;;21.00;9.65;;;;;;;-146.27;81.29;33063.22;5024718;28;20057;-72
2023/11/18 05:34:24;;;;;;;16.90;9.30;;;;;;;-146.27;81.12;33071.16;5025993;28;20631;-70
2023/11/18 05:36:54;;;;;;;25.13;8.85;;;;;;;-146.27;80.98;33071.16;5027056;28;20408;-74
2023/11/18 05:39:24;;;;;;;15.02;9.23;;;;;;;-146.27;80.98;33059.25;5032623;28;20487;-70
2023/11/18 05:41:50;;;;;;;16.30;9.57;;;;;;;-146.27;81.30;33051.31;5015943;28;20021;-72
2023/11/18 05:44:19;;;;;;;20.63;9.27;;;;;;;-146.27;80.97;33096.94;5026985;28;20029;-70
2023/11/18 05:46:48;;;;;;;16.38;9.68;;;;;;;-146.27;80.89;33065.19;5028486;28;20382;-71
2023/11/18 05:49:13;;;;;;;17.80;9.32;;;;;;;-146.27;81.03;33061.22;5028548;28;20108;-71
2023/11/18 05:51:42;;;;;;;18.45;8.63;;;;;;;-146.27;80.89;33013.63;5032018;28;20116;-69
2023/11/18 05:54:08;;;;;;;13.00;8.57;;;;;;;-146.27;80.82;33029.47;5025871;28;20013;-69
2023/11/18 05:56:34;;;;;;;16.23;8.38;;;;;;;-146.27;80.79;33041.38;5033669;28;20132;-71
2023/11/18 05:58:59;;;;;;;15.95;8.82;;;;;;;-146.27;80.62;33013.63;5032957;28;20076;-69
2023/11/18 06:01:27;;;;;;;19.45;8.55;;;;;;;-146.27;80.42;33021.53;5027493;28;20054;-71
2023/11/18 06:03:52;;;;;;;17.15;8.18;;;;;;;-146.27;80.72;33033.44;5027180;28;20113;-72
2023/11/18 06:06:18;;;;;;;16.50;9.48;;;;;;;-146.27;80.77;33045.34;5028902;28;20425;-71
2023/11/18 06:08:44;;;;;;;17.45;9.02;;;;;;;-146.27;80.90;33043.38;5020553;28;20025;-72
2023/11/18 06:11:14;;;;;;;22.08;8.88;;;;;;;-146.27;81.03;33045.34;5022064;28;20040;-70
2023/11/18 06:13:50;;;;;;;16.83;9.85;;;;;;;-146.27;81.21;33069.16;5042564;28;20033;-69
2023/11/18 06:16:21;;;;;;;21.13;10.23;;;;;;;-146.27;81.03;33033.44;5019928;28;20044;-71
2023/11/18 06:18:48;;;;;;;18.17;9.43;;;;;;;-146.27;81.08;33027.50;5018572;28;20054;-69
2023/11/18 06:21:24;;;;;;;18.77;9.18;;;;;;;-146.27;81.21;33057.25;5026855;28;20032;-72
2023/11/18 06:23:49;;;;;;;16.20;8.13;;;;;;;-146.27;81.20;33065.19;5027105;28;20036;-71
2023/11/18 06:26:15;;;;;;;21.23;9.32;;;;;;;-146.27;80.93;33061.22;5041875;28;20388;-69
2023/11/18 06:28:42;;;;;;;21.38;8.73;;;;;;;-146.27;81.08;33039.41;5025290;28;20017;-70
2023/11/18 06:31:11;;;;;;;16.75;9.52;;;;;;;-146.27;81.15;33065.19;5027177;28;20512;-70
2023/11/18 06:33:42;;;;;;;22.27;9.23;;;;;;;-146.27;80.96;33059.25;5027897;28;20025;-70
2023/11/18 06:36:10;;;;;;;17.45;9.65;;;;;;;-146.27;81.08;33083.06;5031866;28;20052;-70
2023/11/18 06:38:36;;;;;;;17.05;9.52;;;;;;;-146.27;81.30;33096.94;5033769;28;20033;-70
2023/11/18 06:41:03;;;;;;;24.52;9.75;;;;;;;-146.27;81.21;33077.09;5034582;28;20021;-70
2023/11/18 06:43:41;;;;;;;19.50;9.13;;;;;;;-146.27;81.21;33098.94;5032702;28;20113;-69
2023/11/18 06:46:10;;;;;;;24.08;9.73;;;;;;;-146.27;81.44;33081.06;5031185;28;20108;-71
2023/11/18 06:48:35;;;;;;;17.45;9.57;;;;;;;-146.27;81.54;33096.94;5030569;28;20500;-72
2023/11/18 06:51:01;;;;;;;21.52;9.10;;;;;;;-146.27;81.29;33073.13;5028275;28;20034;-71
2023/11/18 06:53:27;;;;;;;21.20;9.38;;;;;;;-146.27;81.41;33069.16;5032564;28;20025;-71
2023/11/18 06:55:52;;;;;;;20.33;9.23;;;;;;;-146.27;81.27;33075.13;5027256;28;20021;-72
2023/11/18 06:58:18;;;;;;;16.70;8.73;;;;;;;-146.27;81.46;33092.97;5037601;28;20499;-68
2023/11/18 07:00:43;;;;;;;27.95;9.27;;;;;;;-146.27;81.30;33091.00;5028534;28;20022;-70
2023/11/18 07:03:09;;;;;;;23.30;10.48;;;;;;;-146.27;81.47;33091.00;5041882;28;20029;-70
2023/11/18 07:05:34;;;;;;;17.80;9.57;;;;;;;-146.27;81.41;33057.25;5039433;28;20082;-69
2023/11/18 07:07:59;;;;;;;21.70;8.18;;;;;;;-146.27;81.53;33065.19;5039840;28;20485;-70
2023/11/18 07:10:27;;;;;;;15.75;9.55;;;;;;;-146.27;81.47;33092.97;5029981;28;20710;-70
2023/11/18 07:12:53;;;;;;;21.65;9.75;;;;;;;-146.27;81.57;33059.25;5029651;28;20448;-69
2023/11/18 07:15:18;;;;;;;22.20;8.95;;;;;;;-146.27;81.59;33053.28;5036844;28;20086;-69
2023/11/18 07:17:44;;;;;;;20.23;8.50;;;;;;;-146.27;81.81;33045.34;5028890;28;20049;-68
2023/11/18 07:20:12;;;;;;;19.55;8.20;;;;;;;-146.27;81.67;33065.19;5034359;28;20110;-70
2023/11/18 07:22:39;;;;;;;23.02;9.10;;;;;;;-146.27;81.68;33071.16;5042904;28;20503;-69
2023/11/18 07:25:06;;;;;;;25.83;10.63;;;;;;;-146.27;81.61;33089.00;5038690;28;20021;-71
2023/11/18 07:27:34;;;;;;;23.00;10.15;;;;;;;-146.27;81.79;33087.03;5032246;28;20087;-70
2023/11/18 07:30:00;;;;;;;21.75;9.18;;;;;;;-146.27;81.65;33057.25;5033543;28;20037;-69
2023/11/18 07:32:26;;;;;;;25.88;9.70;;;;;;;-146.27;81.65;33079.09;5034111;28;20033;-67
2023/11/18 07:34:51;;;;;;;21.77;8.70;;;;;;;-146.27;81.93;33041.38;5030377;28;20163;-72
2023/11/18 07:37:17;;;;;;;17.38;8.70;;;;;;;-146.27;81.75;33061.22;5028718;28;20025;-69
2023/11/18 07:39:48;;;;;;;23.25;9.45;;;;;;;-146.27;81.86;33073.13;5035658;28;20061;-70
2023/11/18 07:42:13;;;;;;;22.83;9.13;;;;;;;-146.27;81.80;33081.06;5030469;28;20037;-68
2023/11/18 07:44:39;;;;;;;27.23;8.32;;;;;;;-146.27;81.63;33073.13;5039202;28;20098;-69
2023/11/18 07:47:05;;;;;;;20.98;8.15;;;;;;;-146.27;81.40;32995.75;5031630;28;20684;-69
2023/11/18 07:49:31;;;;;;;28.60;8.88;;;;;;;-146.27;81.48;33055.28;5038728;28;20104;-69
2023/11/18 07:51:57;;;;;;;20.13;8.35;;;;;;;-146.27;81.52;33057.25;5042080;28;20037;-69
2023/11/18 07:54:23;;;;;;;19.58;7.97;;;;;;;-146.27;81.51;33049.31;5040736;28;20022;-69
2023/11/18 07:56:49;;;;;;;14.73;8.27;;;;;;;-146.27;81.40;32997.75;5037435;28;20021;-69
2023/11/18 07:59:18;;;;;;;22.48;7.20;;;;;;;-146.27;81.54;33021.53;5032661;28;20120;-69
2023/11/18 08:01:44;;;;;;;17.48;8.07;;;;;;;-146.27;81.27;33033.44;5028470;28;20021;-68
2023/11/18 08:04:09;;;;;;;21.55;7.68;;;;;;;-146.27;81.73;33071.16;5033834;28;20025;-68
2023/11/18 08:06:35;;;;;;;14.65;7.35;;;;;;;-146.27;81.55;33087.03;5033501;28;20493;-68
2023/11/18 08:09:00;;;;;;;25.27;7.75;;;;;;;-146.27;81.51;33059.25;5030884;28;20029;-70
2023/11/18 08:11:26;;;;;;;15.20;7.35;;;;;;;-146.27;81.19;33021.53;5032815;28;20021;-70
2023/11/18 08:13:51;;;;;;;19.88;8.32;;;;;;;-146.27;81.17;33047.34;5030121;28;20072;-68
2023/11/18 08:16:16;;;;;;;21.92;7.65;;;;;;;-146.27;81.27;33055.28;5031160;28;20029;-70
2023/11/18 08:18:42;;;;;;;22.90;8.15;;;;;;;-146.27;81.03;33029.47;5026469;28;20100;-68
2023/11/18 08:21:07;;;;;;;20.10;8.32;;;;;;;-146.27;81.23;33049.31;5024944;28;20497;-69
2023/11/18 08:23:33;;;;;;;16.17;7.43;;;;;;;-146.27;81.16;33017.56;5029676;28;20065;-70
2023/11/18 08:25:58;;;;;;;18.35;7.90;;;;;;;-146.27;81.36;33017.56;5034054;28;20692;-67
2023/11/18 08:28:24;;;;;;;17.67;8.35;;;;;;;-146.27;81.62;33047.34;5039531;28;20017;-70
2023/11/18 08:30:51;;;;;;;17.45;7.75;;;;;;;-146.27;81.59;33033.44;5030880;28;20029;-69
2023/11/18 08:33:17;;;;;;;17.77;8.25;;;;;;;-146.27;81.70;33039.41;5036647;28;20030;-70
2023/11/18 08:35:42;;;;;;;14.00;7.10;;;;;;;-146.27;81.95;33057.25;5032692;28;20370;-69
2023/11/18 08:38:08;;;;;;;20.02;7.25;;;;;;;-146.27;82.20;33055.28;5038483;28;20040;-69
2023/11/18 08:40:34;;;;;;;16.98;8.43;;;;;;;-146.27;82.06;33033.44;5029182;28;20145;-73
2023/11/18 08:43:01;;;;;;;14.60;6.97;;;;;;;-146.27;82.11;33045.34;5032487;28;20017;-69
2023/11/18 08:45:29;;;;;;;19.52;7.78;;;;;;;-146.27;82.28;33069.16;5030654;28;20037;-69
2023/11/18 08:47:58;;;;;;;18.30;7.63;;;;;;;-146.27;82.51;33077.09;5051008;28;20031;-69
2023/11/18 08:50:26;;;;;;;14.80;7.97;;;;;;;-146.27;82.50;32989.81;5042402;28;20052;-69
2023/11/18 08:52:57;;;;;;;18.27;7.65;;;;;;;-146.27;83.00;33083.06;5035007;28;20025;-69
2023/11/18 08:55:38;;;;;;;19.10;7.72;;;;;;;-146.27;83.09;33108.84;5021795;28;20079;-69
2023/11/18 08:58:15;;;;;;;18.65;8.57;;;;;;;-146.27;83.65;33112.81;5030101;28;20605;-70
2023/11/18 09:03:17;;;;;;;25.67;8.45;;;;;;;-146.27;83.93;33045.34;5034550;28;20400;-70
2023/11/18 09:05:58;;;;;;;25.00;8.20;;;;;;;-146.27;84.50;33128.69;5034359;28;20120;-69
2023/11/18 09:08:27;;;;;;;18.13;7.68;;;;;;;-146.27;84.54;33096.94;5035436;28;20034;-70
2023/11/18 09:10:54;;;;;;;19.52;7.32;;;;;;;-146.27;84.44;33061.22;5034376;28;20486;-71
2023/11/18 09:13:21;;;;;;;27.95;8.45;;;;;;;-146.27;85.06;33081.06;5025597;28;20124;-70
2023/11/18 09:15:48;;;;;;;22.60;7.75;;;;;;;-146.27;85.62;33108.84;5032585;28;20087;-69
2023/11/18 09:18:21;;;;;;;19.13;7.43;;;;;;;-146.27;85.51;33075.13;5120230;27;20123;-69
2023/11/18 09:20:47;;;;;;;20.40;7.75;;;;;;;-146.27;85.62;33096.94;5106829;27;20936;-69
2023/11/18 09:23:15;;;;;;;18.13;7.00;;;;;;;-146.27;85.39;33096.94;5107019;28;20031;-69
2023/11/18 09:25:41;;;;;;;15.90;6.95;;;;;;;-146.27;85.78;33061.22;5098247;28;20030;-69
2023/11/18 09:28:10;;;;;;;20.52;6.50;;;;;;;-146.27;85.83;32977.91;5102564;28;20027;-69
2023/11/18 09:30:38;;;;;;;16.77;6.63;;;;;;;-146.27;86.32;33027.50;5104172;28;20079;-70
2023/11/18 09:33:06;;;;;;;11.55;5.80;;;;;;;-146.27;86.55;33029.47;5102759;28;20028;-73
2023/11/18 09:35:34;;;;;;;16.65;5.80;;;;;;;-146.27;86.96;33021.53;5104577;28;20153;-69
2023/11/18 09:37:59;;;;;;;16.10;6.18;;;;;;;-146.27;86.67;33015.59;5106230;28;20023;-70
2023/11/18 09:40:31;;;;;;;16.88;5.82;;;;;;;-146.27;87.00;33005.69;5100223;28;20426;-70
2023/11/18 09:42:58;;;;;;;11.00;5.10;;;;;;;-146.27;86.85;32977.91;5095414;28;20070;-70
2023/11/18 09:45:23;;;;;;;14.20;5.43;;;;;;;-146.27;86.80;32997.75;5104639;28;20472;-69
2023/11/18 09:47:53;;;;;;;10.55;4.78;;;;;;;-146.27;87.05;32962.03;5103340;28;20040;-69
2023/11/18 09:50:27;;;;;;;15.50;4.85;;;;;;;-146.27;86.96;32991.78;5106273;28;20020;-68
2023/11/18 09:52:58;;;;;;;16.17;5.63;;;;;;;-146.27;86.85;32993.78;5105964;28;20027;-68
2023/11/18 09:55:40;;;;;;;14.82;4.75;;;;;;;-146.27;86.69;32973.94;5102350;28;20388;-69
2023/11/18 09:58:15;;;;;;;16.30;5.47;;;;;;;-146.27;86.79;32942.19;5103931;28;20028;-70
2023/11/18 10:00:44;;;;;;;13.82;4.65;;;;;;;-146.27;87.10;32993.78;5102739;28;20099;-69
2023/11/18 10:03:15;;;;;;;13.63;4.57;;;;;;;-146.27;86.94;32960.03;5102319;28;20027;-70
2023/11/18 10:05:42;;;;;;;17.88;4.75;;;;;;;-146.27;86.77;32918.38;5099972;28;20024;-71
2023/11/18 10:08:07;;;;;;;17.88;5.72;;;;;;;-146.27;86.72;32906.47;5093438;28;20099;-70
2023/11/18 10:10:36;;;;;;;10.65;4.50;;;;;;;-146.27;86.85;32910.44;5090019;28;20795;-71
2023/11/18 10:13:04;;;;;;;9.90;4.57;;;;;;;-146.27;86.36;32894.56;5098339;28;20027;-72
2023/11/18 10:15:31;;;;;;;13.95;4.82;;;;;;;-146.27;86.64;32922.34;5091311;28;20028;-71
2023/11/18 10:17:59;;;;;;;13.07;4.78;;;;;;;-146.27;86.83;32868.78;5102531;28;20037;-70
2023/11/18 10:20:44;;;;;;;10.40;3.90;;;;;;;-146.27;86.25;32882.66;5106500;28;20020;-71
2023/11/18 10:23:11;;;;;;;11.10;3.47;;;;;;;-146.27;86.50;32900.53;5121779;28;20035;-71
2023/11/18 10:25:58;;;;;;;14.13;4.85;;;;;;;-146.27;86.52;32924.34;5119105;28;20654;-70
2023/11/18 10:28:27;;;;;;;9.23;3.90;;;;;;;-146.27;86.59;32918.38;5085996;28;20032;-70
2023/11/18 10:31:06;;;;;;;12.32;4.38;;;;;;;-146.27;86.52;32846.97;5098021;28;20023;-68
2023/11/18 10:33:35;;;;;;;10.50;3.65;;;;;;;-146.27;86.33;32835.06;5098818;28;20441;-71
2023/11/18 10:36:04;;;;;;;11.43;4.35;;;;;;;-146.27;87.09;32860.84;5105670;28;20027;-70
2023/11/18 10:38:49;;;;;;;13.85;4.35;;;;;;;-146.27;86.90;32852.91;5110178;28;20050;-72
2023/11/18 10:41:16;;;;;;;11.23;3.83;;;;;;;-146.27;86.91;32866.81;5101604;28;20065;-73
2023/11/18 10:43:44;;;;;;;7.78;3.03;;;;;;;-146.27;87.07;32898.53;5092620;28;20085;-72
2023/11/18 10:46:15;;;;;;;7.70;3.33;;;;;;;-146.27;87.10;32854.91;5112240;28;20063;-72
2023/11/18 10:48:42;;;;;;;9.50;3.65;;;;;;;-146.27;87.21;32848.94;5113486;28;20471;-72
2023/11/18 10:51:12;;;;;;;14.80;3.67;;;;;;;-146.27;87.79;32894.56;5112335;28;20095;-72
2023/11/18 10:53:53;;;;;;;17.45;3.80;;;;;;;-146.27;87.72;32880.69;5111629;28;20060;-71
2023/11/18 10:56:26;;;;;;;11.35;3.85;;;;;;;-146.27;87.60;32874.75;5099339;28;20064;-68
2023/11/18 10:58:53;;;;;;;10.95;4.30;;;;;;;-146.27;87.99;32874.75;5094878;28;20160;-71
2023/11/18 11:01:27;;;;;;;8.23;3.47;;;;;;;-146.27;88.13;32900.53;5095077;28;20032;-71
2023/11/18 11:03:56;;;;;;;14.00;3.75;;;;;;;-146.27;88.64;32922.34;5093535;28;20024;-71
2023/11/18 11:06:30;;;;;;;11.73;3.50;;;;;;;-146.27;89.07;32898.53;5091056;28;20043;-69
2023/11/18 11:09:00;;;;;;;16.27;4.47;;;;;;;-146.27;89.19;32906.47;5099874;27;20498;-70
2023/11/18 11:11:34;;;;;;;11.10;4.65;;;;;;;-146.27;89.49;32890.59;5080729;28;20946;-70